Lignite, North Dakota
Current Conditions -  °F | °C
As of 4:00 PM on Tuesday 21 Oct 2014 (Local Time) from CYEN Reporting Station
Few Clouds Few Clouds  
Wind Chill: 70°   Ceiling: Unl
Heat Index: 70°   Visibility: 15mi
Dew Point: 43°   Wind: 16mph
Humidity: 38%   Direction: 110°ESE
Pressure: 29.6"   Gusts: NA
Location:  48.88°N, 102.56°W
Report Text: CYEN 212100Z 11014KT 15SM FEW120 FEW250 21/06 A2960 RMK AC1CI1 SLP029
Loading
Personal Weather Stations






























Interactive Weather Map
Tropical Storm Tracking
New forecast layout! Learn more

10-Day Weather Forecast

Advertisements
Track Severe Weather on mobile